sensor_id;sensor_type;location;lat;lon;timestamp;P1;durP1;ratioP1;P2;durP2;ratioP2
73421;SDS011;61637;47.760;-122.022;2023-03-14T00:00:01;3.3;;;0.9;;
73421;SDS011;61637;47.760;-122.022;2023-03-14T00:02:01;2.8;;;1.0;;
73421;SDS011;61637;47.760;-122.022;2023-03-14T00:04:04;4.2;;;1.0;;
73421;SDS011;61637;47.760;-122.022;2023-03-14T00:06:02;3.5;;;1.0;;
73421;SDS011;61637;47.760;-122.022;2023-03-14T00:08:01;2.6;;;1.0;;
73421;SDS011;61637;47.760;-122.022;2023-03-14T00:10:02;3.0;;;1.0;;
73421;SDS011;61637;47.760;-122.022;2023-03-14T00:12:02;3.3;;;0.9;;
73421;SDS011;61637;47.760;-122.022;2023-03-14T00:14:01;2.8;;;0.9;;
73421;SDS011;61637;47.760;-122.022;2023-03-14T00:16:04;3.5;;;1.0;;
73421;SDS011;61637;47.760;-122.022;2023-03-14T00:18:02;2.4;;;0.8;;
73421;SDS011;61637;47.760;-122.022;2023-03-14T00:20:03;2.7;;;0.9;;
73421;SDS011;61637;47.760;-122.022;2023-03-14T00:22:01;2.4;;;0.9;;
73421;SDS011;61637;47.760;-122.022;2023-03-14T00:24:01;2.6;;;0.9;;
73421;SDS011;61637;47.760;-122.022;2023-03-14T00:26:03;3.4;;;1.0;;
73421;SDS011;61637;47.760;-122.022;2023-03-14T00:28:01;3.0;;;0.9;;
73421;SDS011;61637;47.760;-122.022;2023-03-14T00:30:02;3.8;;;0.9;;
73421;SDS011;61637;47.760;-122.022;2023-03-14T00:32:01;2.6;;;0.9;;
73421;SDS011;61637;47.760;-122.022;2023-03-14T00:34:02;2.4;;;0.9;;
73421;SDS011;61637;47.760;-122.022;2023-03-14T00:36:04;4.2;;;0.9;;
73421;SDS011;61637;47.760;-122.022;2023-03-14T00:38:01;3.0;;;0.8;;
73421;SDS011;61637;47.760;-122.022;2023-03-14T00:40:01;2.9;;;0.8;;
73421;SDS011;61637;47.760;-122.022;2023-03-14T00:42:01;3.3;;;0.8;;
73421;SDS011;61637;47.760;-122.022;2023-03-14T00:44:01;2.8;;;0.8;;
73421;SDS011;61637;47.760;-122.022;2023-03-14T00:46:02;2.2;;;0.8;;
73421;SDS011;61637;47.760;-122.022;2023-03-14T00:48:02;2.8;;;0.9;;
73421;SDS011;61637;47.760;-122.022;2023-03-14T00:50:01;2.4;;;0.8;;
73421;SDS011;61637;47.760;-122.022;2023-03-14T00:52:01;3.4;;;0.8;;
73421;SDS011;61637;47.760;-122.022;2023-03-14T00:54:01;4.6;;;1.0;;
73421;SDS011;61637;47.760;-122.022;2023-03-14T00:56:03;3.6;;;1.0;;
73421;SDS011;61637;47.760;-122.022;2023-03-14T00:58:01;3.8;;;1.0;;
73421;SDS011;61637;47.760;-122.022;2023-03-14T01:00:01;3.8;;;0.9;;
73421;SDS011;61637;47.760;-122.022;2023-03-14T01:02:01;2.9;;;0.9;;
73421;SDS011;61637;47.760;-122.022;2023-03-14T01:04:01;3.4;;;1.0;;
73421;SDS011;61637;47.760;-122.022;2023-03-14T01:06:10;2.6;;;0.9;;
73421;SDS011;61637;47.760;-122.022;2023-03-14T01:08:02;3.2;;;0.8;;
73421;SDS011;61637;47.760;-122.022;2023-03-14T01:10:02;3.2;;;0.8;;
73421;SDS011;61637;47.760;-122.022;2023-03-14T01:12:02;3.5;;;1.0;;
73421;SDS011;61637;47.760;-122.022;2023-03-14T01:14:03;3.0;;;0.8;;
73421;SDS011;61637;47.760;-122.022;2023-03-14T01:16:02;4.1;;;1.1;;
73421;SDS011;61637;47.760;-122.022;2023-03-14T01:18:02;3.5;;;1.0;;
73421;SDS011;61637;47.760;-122.022;2023-03-14T01:20:01;3.7;;;1.0;;
73421;SDS011;61637;47.760;-122.022;2023-03-14T01:22:02;4.1;;;1.1;;
73421;SDS011;61637;47.760;-122.022;2023-03-14T01:24:04;4.6;;;1.0;;
73421;SDS011;61637;47.760;-122.022;2023-03-14T01:26:01;3.8;;;1.0;;
73421;SDS011;61637;47.760;-122.022;2023-03-14T01:28:01;4.2;;;1.0;;
73421;SDS011;61637;47.760;-122.022;2023-03-14T01:30:02;4.4;;;1.0;;
73421;SDS011;61637;47.760;-122.022;2023-03-14T01:32:01;3.5;;;1.0;;
73421;SDS011;61637;47.760;-122.022;2023-03-14T01:34:01;3.4;;;1.1;;
73421;SDS011;61637;47.760;-122.022;2023-03-14T01:36:02;5.2;;;0.9;;
73421;SDS011;61637;47.760;-122.022;2023-03-14T01:38:01;4.1;;;1.0;;
73421;SDS011;61637;47.760;-122.022;2023-03-14T01:40:02;3.2;;;1.1;;
73421;SDS011;61637;47.760;-122.022;2023-03-14T01:42:02;4.3;;;1.0;;
73421;SDS011;61637;47.760;-122.022;2023-03-14T01:44:01;4.3;;;1.1;;
73421;SDS011;61637;47.760;-122.022;2023-03-14T01:46:17;3.9;;;1.0;;
73421;SDS011;61637;47.760;-122.022;2023-03-14T01:48:01;3.3;;;1.0;;
73421;SDS011;61637;47.760;-122.022;2023-03-14T01:50:05;4.7;;;1.2;;
73421;SDS011;61637;47.760;-122.022;2023-03-14T01:52:04;3.5;;;1.1;;
73421;SDS011;61637;47.760;-122.022;2023-03-14T01:54:05;6.8;;;1.0;;
73421;SDS011;61637;47.760;-122.022;2023-03-14T01:56:01;3.5;;;1.2;;
73421;SDS011;61637;47.760;-122.022;2023-03-14T01:58:03;4.4;;;1.1;;
73421;SDS011;61637;47.760;-122.022;2023-03-14T02:00:05;5.0;;;1.2;;
73421;SDS011;61637;47.760;-122.022;2023-03-14T02:02:02;3.7;;;1.1;;
73421;SDS011;61637;47.760;-122.022;2023-03-14T02:04:04;4.3;;;1.0;;
73421;SDS011;61637;47.760;-122.022;2023-03-14T02:06:04;4.4;;;1.1;;
73421;SDS011;61637;47.760;-122.022;2023-03-14T02:08:04;3.5;;;1.0;;
73421;SDS011;61637;47.760;-122.022;2023-03-14T02:10:03;3.1;;;1.0;;
73421;SDS011;61637;47.760;-122.022;2023-03-14T02:12:02;3.3;;;1.0;;
73421;SDS011;61637;47.760;-122.022;2023-03-14T02:14:02;4.4;;;1.0;;
73421;SDS011;61637;47.760;-122.022;2023-03-14T02:16:01;4.6;;;1.1;;
73421;SDS011;61637;47.760;-122.022;2023-03-14T02:18:02;3.6;;;1.2;;
73421;SDS011;61637;47.760;-122.022;2023-03-14T02:20:10;3.3;;;1.0;;
73421;SDS011;61637;47.760;-122.022;2023-03-14T02:22:05;3.7;;;1.0;;
73421;SDS011;61637;47.760;-122.022;2023-03-14T02:24:09;4.4;;;1.1;;
73421;SDS011;61637;47.760;-122.022;2023-03-14T02:26:07;4.7;;;1.1;;
73421;SDS011;61637;47.760;-122.022;2023-03-14T02:28:01;3.9;;;1.1;;
73421;SDS011;61637;47.760;-122.022;2023-03-14T02:30:05;4.0;;;1.0;;
73421;SDS011;61637;47.760;-122.022;2023-03-14T02:32:02;4.8;;;1.1;;
73421;SDS011;61637;47.760;-122.022;2023-03-14T02:34:02;4.6;;;1.0;;
73421;SDS011;61637;47.760;-122.022;2023-03-14T02:36:04;4.4;;;1.2;;
73421;SDS011;61637;47.760;-122.022;2023-03-14T02:38:07;5.2;;;1.2;;
73421;SDS011;61637;47.760;-122.022;2023-03-14T02:40:02;5.2;;;1.2;;
73421;SDS011;61637;47.760;-122.022;2023-03-14T02:42:01;4.1;;;1.2;;
73421;SDS011;61637;47.760;-122.022;2023-03-14T02:44:01;5.2;;;1.3;;
73421;SDS011;61637;47.760;-122.022;2023-03-14T02:46:03;4.8;;;1.2;;
73421;SDS011;61637;47.760;-122.022;2023-03-14T02:48:05;5.2;;;1.2;;
73421;SDS011;61637;47.760;-122.022;2023-03-14T02:50:06;4.1;;;1.2;;
73421;SDS011;61637;47.760;-122.022;2023-03-14T02:52:01;4.8;;;1.3;;
73421;SDS011;61637;47.760;-122.022;2023-03-14T02:54:01;4.3;;;1.2;;
73421;SDS011;61637;47.760;-122.022;2023-03-14T02:56:02;3.9;;;1.1;;
73421;SDS011;61637;47.760;-122.022;2023-03-14T02:58:02;6.0;;;1.7;;
73421;SDS011;61637;47.760;-122.022;2023-03-14T03:00:03;3.8;;;1.1;;
73421;SDS011;61637;47.760;-122.022;2023-03-14T03:02:01;3.7;;;1.3;;
73421;SDS011;61637;47.760;-122.022;2023-03-14T03:04:01;6.5;;;1.1;;
73421;SDS011;61637;47.760;-122.022;2023-03-14T03:06:02;5.5;;;1.5;;
73421;SDS011;61637;47.760;-122.022;2023-03-14T03:08:02;4.8;;;1.3;;
73421;SDS011;61637;47.760;-122.022;2023-03-14T03:10:01;6.4;;;1.6;;
73421;SDS011;61637;47.760;-122.022;2023-03-14T03:12:01;4.1;;;1.2;;
73421;SDS011;61637;47.760;-122.022;2023-03-14T03:14:02;4.4;;;1.1;;
73421;SDS011;61637;47.760;-122.022;2023-03-14T03:16:01;3.9;;;1.1;;
73421;SDS011;61637;47.760;-122.022;2023-03-14T03:18:02;5.6;;;1.4;;
73421;SDS011;61637;47.760;-122.022;2023-03-14T03:20:01;5.9;;;1.3;;
73421;SDS011;61637;47.760;-122.022;2023-03-14T03:22:01;5.7;;;1.4;;
73421;SDS011;61637;47.760;-122.022;2023-03-14T03:24:01;7.1;;;1.4;;
73421;SDS011;61637;47.760;-122.022;2023-03-14T03:26:01;6.8;;;1.6;;
73421;SDS011;61637;47.760;-122.022;2023-03-14T03:28:01;8.2;;;1.4;;
73421;SDS011;61637;47.760;-122.022;2023-03-14T03:30:03;5.5;;;1.3;;
73421;SDS011;61637;47.760;-122.022;2023-03-14T03:32:01;6.1;;;1.2;;
73421;SDS011;61637;47.760;-122.022;2023-03-14T03:34:01;5.0;;;1.3;;
73421;SDS011;61637;47.760;-122.022;2023-03-14T03:36:01;4.6;;;1.6;;
73421;SDS011;61637;47.760;-122.022;2023-03-14T03:38:01;8.1;;;3.3;;
73421;SDS011;61637;47.760;-122.022;2023-03-14T03:40:01;7.3;;;3.0;;
73421;SDS011;61637;47.760;-122.022;2023-03-14T03:42:01;5.7;;;1.8;;
73421;SDS011;61637;47.760;-122.022;2023-03-14T03:44:01;5.9;;;2.0;;
73421;SDS011;61637;47.760;-122.022;2023-03-14T03:46:03;7.9;;;2.6;;
73421;SDS011;61637;47.760;-122.022;2023-03-14T03:48:02;6.4;;;4.4;;
73421;SDS011;61637;47.760;-122.022;2023-03-14T03:50:01;8.8;;;6.0;;
73421;SDS011;61637;47.760;-122.022;2023-03-14T03:52:01;8.2;;;4.3;;
73421;SDS011;61637;47.760;-122.022;2023-03-14T03:54:01;7.1;;;2.7;;
73421;SDS011;61637;47.760;-122.022;2023-03-14T03:56:01;10.1;;;5.6;;
73421;SDS011;61637;47.760;-122.022;2023-03-14T03:58:01;12.5;;;10.8;;
73421;SDS011;61637;47.760;-122.022;2023-03-14T04:00:02;12.3;;;11.0;;
73421;SDS011;61637;47.760;-122.022;2023-03-14T04:02:01;11.1;;;9.4;;
73421;SDS011;61637;47.760;-122.022;2023-03-14T04:04:01;8.9;;;5.7;;
73421;SDS011;61637;47.760;-122.022;2023-03-14T04:06:03;9.2;;;5.3;;
73421;SDS011;61637;47.760;-122.022;2023-03-14T04:08:02;8.9;;;5.3;;
73421;SDS011;61637;47.760;-122.022;2023-03-14T04:10:01;8.2;;;5.3;;
73421;SDS011;61637;47.760;-122.022;2023-03-14T04:12:01;6.9;;;5.1;;
73421;SDS011;61637;47.760;-122.022;2023-03-14T04:14:01;9.0;;;5.2;;
73421;SDS011;61637;47.760;-122.022;2023-03-14T04:16:01;7.7;;;4.3;;
73421;SDS011;61637;47.760;-122.022;2023-03-14T04:18:01;8.6;;;4.3;;
73421;SDS011;61637;47.760;-122.022;2023-03-14T04:20:01;9.4;;;5.9;;
73421;SDS011;61637;47.760;-122.022;2023-03-14T04:22:01;12.3;;;8.4;;
73421;SDS011;61637;47.760;-122.022;2023-03-14T04:24:01;11.2;;;8.5;;
73421;SDS011;61637;47.760;-122.022;2023-03-14T04:26:01;12.1;;;10.9;;
73421;SDS011;61637;47.760;-122.022;2023-03-14T04:28:02;12.1;;;9.8;;
73421;SDS011;61637;47.760;-122.022;2023-03-14T04:30:01;10.3;;;7.5;;
73421;SDS011;61637;47.760;-122.022;2023-03-14T04:32:01;10.5;;;7.8;;
73421;SDS011;61637;47.760;-122.022;2023-03-14T04:34:01;13.3;;;9.9;;
73421;SDS011;61637;47.760;-122.022;2023-03-14T04:36:02;13.1;;;11.0;;
73421;SDS011;61637;47.760;-122.022;2023-03-14T04:38:01;13.6;;;11.9;;
73421;SDS011;61637;47.760;-122.022;2023-03-14T04:40:02;12.6;;;11.4;;
73421;SDS011;61637;47.760;-122.022;2023-03-14T04:42:02;14.2;;;12.2;;
73421;SDS011;61637;47.760;-122.022;2023-03-14T04:44:01;14.5;;;12.2;;
73421;SDS011;61637;47.760;-122.022;2023-03-14T04:46:01;15.3;;;12.6;;
73421;SDS011;61637;47.760;-122.022;2023-03-14T04:48:02;15.3;;;13.7;;
73421;SDS011;61637;47.760;-122.022;2023-03-14T04:50:02;13.7;;;12.3;;
73421;SDS011;61637;47.760;-122.022;2023-03-14T04:52:02;15.3;;;13.8;;
73421;SDS011;61637;47.760;-122.022;2023-03-14T04:54:01;15.1;;;13.7;;
73421;SDS011;61637;47.760;-122.022;2023-03-14T04:56:01;14.9;;;13.5;;
73421;SDS011;61637;47.760;-122.022;2023-03-14T04:58:01;14.1;;;12.7;;
73421;SDS011;61637;47.760;-122.022;2023-03-14T05:00:02;14.0;;;12.7;;
73421;SDS011;61637;47.760;-122.022;2023-03-14T05:02:01;15.2;;;13.8;;
73421;SDS011;61637;47.760;-122.022;2023-03-14T05:04:01;13.0;;;11.6;;
73421;SDS011;61637;47.760;-122.022;2023-03-14T05:06:01;13.9;;;12.1;;
73421;SDS011;61637;47.760;-122.022;2023-03-14T05:08:01;12.6;;;11.4;;
73421;SDS011;61637;47.760;-122.022;2023-03-14T05:10:01;13.0;;;11.7;;
73421;SDS011;61637;47.760;-122.022;2023-03-14T05:12:01;15.8;;;13.4;;
73421;SDS011;61637;47.760;-122.022;2023-03-14T05:14:01;13.7;;;12.4;;
73421;SDS011;61637;47.760;-122.022;2023-03-14T05:16:05;15.8;;;13.5;;
73421;SDS011;61637;47.760;-122.022;2023-03-14T05:18:01;13.3;;;11.9;;
73421;SDS011;61637;47.760;-122.022;2023-03-14T05:20:02;15.0;;;13.6;;
73421;SDS011;61637;47.760;-122.022;2023-03-14T05:22:01;15.5;;;14.0;;
73421;SDS011;61637;47.760;-122.022;2023-03-14T05:24:01;14.8;;;13.4;;
73421;SDS011;61637;47.760;-122.022;2023-03-14T05:26:01;14.4;;;13.0;;
73421;SDS011;61637;47.760;-122.022;2023-03-14T05:28:01;14.1;;;12.8;;
73421;SDS011;61637;47.760;-122.022;2023-03-14T05:30:01;14.8;;;13.3;;
73421;SDS011;61637;47.760;-122.022;2023-03-14T05:32:01;14.1;;;12.8;;
73421;SDS011;61637;47.760;-122.022;2023-03-14T05:34:02;14.5;;;13.0;;
73421;SDS011;61637;47.760;-122.022;2023-03-14T05:36:01;14.2;;;12.8;;
73421;SDS011;61637;47.760;-122.022;2023-03-14T05:38:02;14.0;;;12.7;;
73421;SDS011;61637;47.760;-122.022;2023-03-14T05:40:01;13.4;;;12.0;;
73421;SDS011;61637;47.760;-122.022;2023-03-14T05:42:01;12.2;;;11.1;;
73421;SDS011;61637;47.760;-122.022;2023-03-14T05:44:01;12.4;;;10.3;;
73421;SDS011;61637;47.760;-122.022;2023-03-14T05:46:01;11.8;;;9.2;;
73421;SDS011;61637;47.760;-122.022;2023-03-14T05:48:01;11.4;;;10.2;;
73421;SDS011;61637;47.760;-122.022;2023-03-14T05:50:01;12.1;;;10.8;;
73421;SDS011;61637;47.760;-122.022;2023-03-14T05:52:01;12.9;;;11.7;;
73421;SDS011;61637;47.760;-122.022;2023-03-14T05:54:01;14.8;;;13.3;;
73421;SDS011;61637;47.760;-122.022;2023-03-14T05:56:01;14.8;;;13.4;;
73421;SDS011;61637;47.760;-122.022;2023-03-14T05:58:01;14.1;;;12.6;;
73421;SDS011;61637;47.760;-122.022;2023-03-14T06:00:01;14.0;;;12.3;;
73421;SDS011;61637;47.760;-122.022;2023-03-14T06:02:01;14.8;;;13.3;;
73421;SDS011;61637;47.760;-122.022;2023-03-14T06:04:01;13.4;;;12.1;;
73421;SDS011;61637;47.760;-122.022;2023-03-14T06:06:02;12.8;;;11.5;;
73421;SDS011;61637;47.760;-122.022;2023-03-14T06:08:01;14.7;;;13.3;;
73421;SDS011;61637;47.760;-122.022;2023-03-14T06:10:02;13.3;;;12.0;;
73421;SDS011;61637;47.760;-122.022;2023-03-14T06:12:03;14.5;;;12.0;;
73421;SDS011;61637;47.760;-122.022;2023-03-14T06:14:01;14.8;;;11.4;;
73421;SDS011;61637;47.760;-122.022;2023-03-14T06:16:01;13.7;;;12.5;;
73421;SDS011;61637;47.760;-122.022;2023-03-14T06:18:02;12.6;;;11.2;;
73421;SDS011;61637;47.760;-122.022;2023-03-14T06:20:01;11.9;;;10.3;;
73421;SDS011;61637;47.760;-122.022;2023-03-14T06:22:01;10.9;;;9.8;;
73421;SDS011;61637;47.760;-122.022;2023-03-14T06:24:02;12.5;;;11.3;;
73421;SDS011;61637;47.760;-122.022;2023-03-14T06:26:01;13.8;;;12.4;;
73421;SDS011;61637;47.760;-122.022;2023-03-14T06:28:02;14.5;;;12.9;;
73421;SDS011;61637;47.760;-122.022;2023-03-14T06:30:01;13.2;;;12.0;;
73421;SDS011;61637;47.760;-122.022;2023-03-14T06:32:01;13.6;;;12.3;;
73421;SDS011;61637;47.760;-122.022;2023-03-14T06:34:02;13.1;;;11.9;;
73421;SDS011;61637;47.760;-122.022;2023-03-14T06:36:01;15.1;;;13.4;;
73421;SDS011;61637;47.760;-122.022;2023-03-14T06:38:01;13.6;;;12.2;;
73421;SDS011;61637;47.760;-122.022;2023-03-14T06:40:01;14.4;;;13.0;;
73421;SDS011;61637;47.760;-122.022;2023-03-14T06:42:01;14.2;;;12.9;;
73421;SDS011;61637;47.760;-122.022;2023-03-14T06:44:02;13.3;;;12.0;;
73421;SDS011;61637;47.760;-122.022;2023-03-14T06:46:01;13.9;;;12.5;;
73421;SDS011;61637;47.760;-122.022;2023-03-14T06:48:02;13.9;;;12.6;;
73421;SDS011;61637;47.760;-122.022;2023-03-14T06:50:01;14.2;;;12.8;;
73421;SDS011;61637;47.760;-122.022;2023-03-14T06:52:01;14.7;;;13.4;;
73421;SDS011;61637;47.760;-122.022;2023-03-14T06:54:01;15.3;;;13.8;;
73421;SDS011;61637;47.760;-122.022;2023-03-14T06:56:02;14.9;;;13.4;;
73421;SDS011;61637;47.760;-122.022;2023-03-14T06:58:01;15.6;;;14.2;;
73421;SDS011;61637;47.760;-122.022;2023-03-14T07:00:01;15.6;;;14.2;;
73421;SDS011;61637;47.760;-122.022;2023-03-14T07:02:01;15.5;;;14.1;;
73421;SDS011;61637;47.760;-122.022;2023-03-14T07:04:01;14.8;;;13.5;;
73421;SDS011;61637;47.760;-122.022;2023-03-14T07:06:01;15.1;;;13.5;;
73421;SDS011;61637;47.760;-122.022;2023-03-14T07:08:01;13.9;;;12.6;;
73421;SDS011;61637;47.760;-122.022;2023-03-14T07:10:01;14.6;;;13.2;;
73421;SDS011;61637;47.760;-122.022;2023-03-14T07:12:02;15.2;;;13.8;;
73421;SDS011;61637;47.760;-122.022;2023-03-14T07:14:01;14.5;;;13.2;;
73421;SDS011;61637;47.760;-122.022;2023-03-14T07:16:01;15.8;;;14.2;;
73421;SDS011;61637;47.760;-122.022;2023-03-14T07:18:02;14.2;;;12.8;;
73421;SDS011;61637;47.760;-122.022;2023-03-14T07:20:01;16.4;;;14.8;;
73421;SDS011;61637;47.760;-122.022;2023-03-14T07:22:01;15.1;;;13.7;;
73421;SDS011;61637;47.760;-122.022;2023-03-14T07:24:01;16.8;;;15.2;;
73421;SDS011;61637;47.760;-122.022;2023-03-14T07:26:01;15.7;;;14.3;;
73421;SDS011;61637;47.760;-122.022;2023-03-14T07:28:01;15.9;;;14.3;;
73421;SDS011;61637;47.760;-122.022;2023-03-14T07:30:01;16.2;;;14.8;;
73421;SDS011;61637;47.760;-122.022;2023-03-14T07:32:01;16.3;;;14.8;;
73421;SDS011;61637;47.760;-122.022;2023-03-14T07:34:02;15.9;;;14.3;;
73421;SDS011;61637;47.760;-122.022;2023-03-14T07:36:02;16.2;;;14.7;;
73421;SDS011;61637;47.760;-122.022;2023-03-14T07:38:01;14.5;;;13.0;;
73421;SDS011;61637;47.760;-122.022;2023-03-14T07:40:01;14.7;;;13.3;;
73421;SDS011;61637;47.760;-122.022;2023-03-14T07:42:01;14.4;;;13.1;;
73421;SDS011;61637;47.760;-122.022;2023-03-14T07:44:01;14.8;;;13.4;;
73421;SDS011;61637;47.760;-122.022;2023-03-14T07:46:01;15.8;;;14.3;;
73421;SDS011;61637;47.760;-122.022;2023-03-14T07:48:01;15.4;;;13.9;;
73421;SDS011;61637;47.760;-122.022;2023-03-14T07:50:02;15.1;;;13.7;;
73421;SDS011;61637;47.760;-122.022;2023-03-14T07:52:01;15.2;;;13.7;;
73421;SDS011;61637;47.760;-122.022;2023-03-14T07:54:01;16.0;;;14.5;;
73421;SDS011;61637;47.760;-122.022;2023-03-14T07:56:01;17.1;;;14.7;;
73421;SDS011;61637;47.760;-122.022;2023-03-14T07:58:01;14.2;;;12.9;;
73421;SDS011;61637;47.760;-122.022;2023-03-14T08:00:01;15.5;;;14.0;;
73421;SDS011;61637;47.760;-122.022;2023-03-14T08:02:01;16.0;;;14.5;;
73421;SDS011;61637;47.760;-122.022;2023-03-14T08:04:01;15.7;;;14.2;;
73421;SDS011;61637;47.760;-122.022;2023-03-14T08:06:01;14.7;;;13.3;;
73421;SDS011;61637;47.760;-122.022;2023-03-14T08:08:02;14.3;;;13.0;;
73421;SDS011;61637;47.760;-122.022;2023-03-14T08:10:03;14.5;;;13.0;;
73421;SDS011;61637;47.760;-122.022;2023-03-14T08:12:01;14.7;;;13.2;;
73421;SDS011;61637;47.760;-122.022;2023-03-14T08:14:01;14.3;;;12.8;;
73421;SDS011;61637;47.760;-122.022;2023-03-14T08:16:01;15.3;;;13.7;;
73421;SDS011;61637;47.760;-122.022;2023-03-14T08:18:01;15.6;;;14.1;;
73421;SDS011;61637;47.760;-122.022;2023-03-14T08:20:01;15.9;;;13.8;;
73421;SDS011;61637;47.760;-122.022;2023-03-14T08:22:01;14.8;;;13.3;;
73421;SDS011;61637;47.760;-122.022;2023-03-14T08:24:01;14.4;;;13.0;;
73421;SDS011;61637;47.760;-122.022;2023-03-14T08:26:01;14.7;;;13.4;;
73421;SDS011;61637;47.760;-122.022;2023-03-14T08:28:01;15.2;;;13.8;;
73421;SDS011;61637;47.760;-122.022;2023-03-14T08:30:02;15.4;;;14.0;;
73421;SDS011;61637;47.760;-122.022;2023-03-14T08:32:01;16.1;;;14.2;;
73421;SDS011;61637;47.760;-122.022;2023-03-14T08:34:01;15.2;;;13.9;;
73421;SDS011;61637;47.760;-122.022;2023-03-14T08:36:02;14.8;;;13.4;;
73421;SDS011;61637;47.760;-122.022;2023-03-14T08:38:01;14.6;;;13.2;;
73421;SDS011;61637;47.760;-122.022;2023-03-14T08:40:03;14.7;;;13.3;;
73421;SDS011;61637;47.760;-122.022;2023-03-14T08:42:01;14.4;;;13.0;;
73421;SDS011;61637;47.760;-122.022;2023-03-14T08:44:01;14.8;;;13.2;;
73421;SDS011;61637;47.760;-122.022;2023-03-14T08:46:02;14.9;;;13.3;;
73421;SDS011;61637;47.760;-122.022;2023-03-14T08:48:01;15.5;;;13.8;;
73421;SDS011;61637;47.760;-122.022;2023-03-14T08:50:02;15.5;;;14.1;;
73421;SDS011;61637;47.760;-122.022;2023-03-14T08:52:01;15.5;;;13.1;;
73421;SDS011;61637;47.760;-122.022;2023-03-14T08:54:01;13.8;;;12.6;;
73421;SDS011;61637;47.760;-122.022;2023-03-14T08:56:01;13.6;;;12.2;;
73421;SDS011;61637;47.760;-122.022;2023-03-14T08:58:01;13.8;;;12.3;;
73421;SDS011;61637;47.760;-122.022;2023-03-14T09:00:03;14.1;;;12.6;;
73421;SDS011;61637;47.760;-122.022;2023-03-14T09:02:02;15.2;;;13.6;;
73421;SDS011;61637;47.760;-122.022;2023-03-14T09:04:01;15.6;;;14.0;;
73421;SDS011;61637;47.760;-122.022;2023-03-14T09:06:03;14.3;;;12.8;;
73421;SDS011;61637;47.760;-122.022;2023-03-14T09:08:01;15.0;;;13.5;;
73421;SDS011;61637;47.760;-122.022;2023-03-14T09:10:01;14.9;;;13.4;;
73421;SDS011;61637;47.760;-122.022;2023-03-14T09:12:01;14.9;;;13.5;;
73421;SDS011;61637;47.760;-122.022;2023-03-14T09:14:01;16.2;;;13.4;;
73421;SDS011;61637;47.760;-122.022;2023-03-14T09:16:02;14.2;;;12.7;;
73421;SDS011;61637;47.760;-122.022;2023-03-14T09:18:02;14.0;;;12.5;;
73421;SDS011;61637;47.760;-122.022;2023-03-14T09:20:01;14.2;;;12.9;;
73421;SDS011;61637;47.760;-122.022;2023-03-14T09:22:02;15.3;;;13.9;;
73421;SDS011;61637;47.760;-122.022;2023-03-14T09:24:01;16.6;;;15.0;;
73421;SDS011;61637;47.760;-122.022;2023-03-14T09:26:01;16.3;;;14.7;;
73421;SDS011;61637;47.760;-122.022;2023-03-14T09:28:01;15.7;;;14.3;;
73421;SDS011;61637;47.760;-122.022;2023-03-14T09:30:01;15.4;;;13.9;;
73421;SDS011;61637;47.760;-122.022;2023-03-14T09:32:01;15.0;;;13.3;;
73421;SDS011;61637;47.760;-122.022;2023-03-14T09:34:02;15.5;;;13.3;;
73421;SDS011;61637;47.760;-122.022;2023-03-14T09:36:01;14.8;;;13.3;;
73421;SDS011;61637;47.760;-122.022;2023-03-14T09:38:01;15.1;;;13.5;;
73421;SDS011;61637;47.760;-122.022;2023-03-14T09:40:01;14.7;;;13.2;;
73421;SDS011;61637;47.760;-122.022;2023-03-14T09:42:05;15.5;;;14.1;;
73421;SDS011;61637;47.760;-122.022;2023-03-14T09:44:05;14.8;;;13.3;;
73421;SDS011;61637;47.760;-122.022;2023-03-14T09:46:03;15.1;;;13.5;;
73421;SDS011;61637;47.760;-122.022;2023-03-14T09:48:03;14.8;;;13.4;;
73421;SDS011;61637;47.760;-122.022;2023-03-14T09:50:02;15.6;;;13.3;;
73421;SDS011;61637;47.760;-122.022;2023-03-14T09:52:07;13.9;;;12.5;;
73421;SDS011;61637;47.760;-122.022;2023-03-14T09:54:01;14.5;;;13.1;;
73421;SDS011;61637;47.760;-122.022;2023-03-14T09:56:01;15.7;;;13.4;;
73421;SDS011;61637;47.760;-122.022;2023-03-14T09:58:09;15.1;;;12.6;;
73421;SDS011;61637;47.760;-122.022;2023-03-14T10:00:05;14.7;;;13.1;;
73421;SDS011;61637;47.760;-122.022;2023-03-14T10:02:13;15.2;;;12.7;;
73421;SDS011;61637;47.760;-122.022;2023-03-14T10:04:04;14.0;;;12.7;;
73421;SDS011;61637;47.760;-122.022;2023-03-14T10:06:01;15.3;;;13.8;;
73421;SDS011;61637;47.760;-122.022;2023-03-14T10:08:01;14.6;;;12.1;;
73421;SDS011;61637;47.760;-122.022;2023-03-14T10:10:10;14.2;;;12.7;;
73421;SDS011;61637;47.760;-122.022;2023-03-14T10:12:01;14.8;;;13.4;;
73421;SDS011;61637;47.760;-122.022;2023-03-14T10:14:06;18.0;;;13.6;;
73421;SDS011;61637;47.760;-122.022;2023-03-14T10:16:04;14.6;;;13.1;;
73421;SDS011;61637;47.760;-122.022;2023-03-14T10:18:03;15.2;;;13.6;;
73421;SDS011;61637;47.760;-122.022;2023-03-14T10:20:01;16.0;;;13.8;;
73421;SDS011;61637;47.760;-122.022;2023-03-14T10:22:03;14.1;;;12.6;;
73421;SDS011;61637;47.760;-122.022;2023-03-14T10:24:10;15.2;;;13.9;;
73421;SDS011;61637;47.760;-122.022;2023-03-14T10:26:07;15.6;;;14.1;;
73421;SDS011;61637;47.760;-122.022;2023-03-14T10:28:02;14.7;;;13.3;;
73421;SDS011;61637;47.760;-122.022;2023-03-14T10:30:04;15.0;;;13.5;;
73421;SDS011;61637;47.760;-122.022;2023-03-14T10:32:03;13.7;;;12.4;;
73421;SDS011;61637;47.760;-122.022;2023-03-14T10:34:04;14.2;;;12.9;;
73421;SDS011;61637;47.760;-122.022;2023-03-14T10:36:03;14.7;;;13.3;;
73421;SDS011;61637;47.760;-122.022;2023-03-14T10:38:02;13.7;;;12.3;;
73421;SDS011;61637;47.760;-122.022;2023-03-14T10:40:03;15.4;;;12.6;;
73421;SDS011;61637;47.760;-122.022;2023-03-14T10:42:09;14.1;;;12.8;;
73421;SDS011;61637;47.760;-122.022;2023-03-14T10:44:01;15.8;;;14.2;;
73421;SDS011;61637;47.760;-122.022;2023-03-14T10:46:06;15.5;;;14.1;;
73421;SDS011;61637;47.760;-122.022;2023-03-14T10:48:17;14.5;;;12.9;;
73421;SDS011;61637;47.760;-122.022;2023-03-14T10:52:13;15.2;;;13.7;;
73421;SDS011;61637;47.760;-122.022;2023-03-14T10:54:04;14.4;;;13.0;;
73421;SDS011;61637;47.760;-122.022;2023-03-14T10:56:04;14.9;;;13.5;;
73421;SDS011;61637;47.760;-122.022;2023-03-14T10:58:01;15.4;;;13.8;;
73421;SDS011;61637;47.760;-122.022;2023-03-14T11:00:01;15.3;;;13.8;;
73421;SDS011;61637;47.760;-122.022;2023-03-14T11:02:07;16.8;;;13.6;;
73421;SDS011;61637;47.760;-122.022;2023-03-14T11:04:07;15.4;;;13.8;;
73421;SDS011;61637;47.760;-122.022;2023-03-14T11:06:07;14.9;;;13.0;;
73421;SDS011;61637;47.760;-122.022;2023-03-14T11:08:07;14.1;;;12.7;;
73421;SDS011;61637;47.760;-122.022;2023-03-14T11:10:08;15.4;;;13.9;;
73421;SDS011;61637;47.760;-122.022;2023-03-14T11:12:26;14.5;;;13.0;;
73421;SDS011;61637;47.760;-122.022;2023-03-14T11:14:08;14.4;;;12.9;;
73421;SDS011;61637;47.760;-122.022;2023-03-14T11:16:08;14.3;;;13.0;;
73421;SDS011;61637;47.760;-122.022;2023-03-14T11:20:16;14.4;;;13.0;;
73421;SDS011;61637;47.760;-122.022;2023-03-14T11:22:06;14.7;;;13.3;;
73421;SDS011;61637;47.760;-122.022;2023-03-14T11:24:16;14.8;;;13.3;;
73421;SDS011;61637;47.760;-122.022;2023-03-14T11:26:11;14.6;;;13.2;;
73421;SDS011;61637;47.760;-122.022;2023-03-14T11:28:09;14.7;;;13.4;;
73421;SDS011;61637;47.760;-122.022;2023-03-14T11:30:05;14.7;;;13.4;;
73421;SDS011;61637;47.760;-122.022;2023-03-14T11:32:07;14.9;;;13.4;;
73421;SDS011;61637;47.760;-122.022;2023-03-14T11:34:07;14.1;;;12.8;;
73421;SDS011;61637;47.760;-122.022;2023-03-14T11:36:06;13.4;;;12.1;;
73421;SDS011;61637;47.760;-122.022;2023-03-14T11:38:07;13.8;;;12.5;;
73421;SDS011;61637;47.760;-122.022;2023-03-14T11:40:08;13.2;;;11.8;;
73421;SDS011;61637;47.760;-122.022;2023-03-14T11:42:02;14.8;;;13.4;;